createdAt,value
2023-03-05T00:01:35.524Z,3.30
2023-03-05T00:04:04.512Z,3.25
2023-03-05T00:06:32.504Z,1.88
2023-03-05T00:08:59.205Z,3.38
2023-03-05T00:11:29.664Z,2.90
2023-03-05T00:13:57.709Z,2.75
2023-03-05T00:16:26.791Z,2.63
2023-03-05T00:18:54.763Z,4.53
2023-03-05T00:21:27.247Z,2.20
2023-03-05T00:23:54.758Z,3.08
2023-03-05T00:26:23.482Z,2.22
2023-03-05T00:28:51.792Z,2.45
2023-03-05T00:31:20.823Z,3.08
2023-03-05T00:33:52.129Z,3.60
2023-03-05T00:36:18.791Z,2.47
2023-03-05T00:38:45.382Z,2.53
2023-03-05T00:41:12.117Z,2.55
2023-03-05T00:43:38.700Z,2.72
2023-03-05T00:46:05.461Z,2.95
2023-03-05T00:48:32.136Z,1.70
2023-03-05T00:50:58.752Z,2.50
2023-03-05T00:53:25.408Z,2.85
2023-03-05T00:55:52.051Z,2.80
2023-03-05T00:58:18.612Z,2.45
2023-03-05T01:00:45.194Z,1.80
2023-03-05T01:03:11.822Z,1.52
2023-03-05T01:05:38.484Z,2.92
2023-03-05T01:08:05.273Z,4.85
2023-03-05T01:10:32.188Z,2.08
2023-03-05T01:12:58.831Z,2.15
2023-03-05T01:15:25.547Z,2.40
2023-03-05T01:17:52.349Z,2.20
2023-03-05T01:20:21.328Z,1.83
2023-03-05T01:22:48.433Z,2.08
2023-03-05T01:25:16.476Z,2.78
2023-03-05T01:27:43.469Z,1.65
2023-03-05T01:30:10.983Z,2.45
2023-03-05T01:32:38.044Z,2.40
2023-03-05T01:35:05.865Z,1.92
2023-03-05T01:37:32.676Z,2.05
2023-03-05T01:39:59.323Z,2.58
2023-03-05T01:42:25.929Z,2.33
2023-03-05T01:45:02.349Z,2.97
2023-03-05T01:47:29.614Z,2.53
2023-03-05T01:49:56.858Z,2.08
2023-03-05T01:52:25.588Z,1.65
2023-03-05T01:54:54.993Z,3.55
2023-03-05T01:57:42.805Z,1.80
2023-03-05T02:00:29.370Z,2.30
2023-03-05T02:02:57.346Z,1.23
2023-03-05T02:05:30.180Z,2.25
2023-03-05T02:08:02.806Z,2.05
2023-03-05T02:10:32.982Z,1.88
2023-03-05T02:13:02.490Z,2.25
2023-03-05T02:15:29.998Z,1.33
2023-03-05T02:17:56.825Z,3.10
2023-03-05T02:20:29.251Z,2.83
2023-03-05T02:22:55.910Z,1.90
2023-03-05T02:25:25.610Z,1.88
2023-03-05T02:28:02.234Z,1.90
2023-03-05T02:30:29.246Z,2.30
2023-03-05T02:32:55.836Z,1.92
2023-03-05T02:35:22.592Z,1.67
2023-03-05T02:37:49.208Z,1.30
2023-03-05T02:40:16.305Z,1.70
2023-03-05T02:42:43.279Z,2.33
2023-03-05T02:45:11.087Z,1.80
2023-03-05T02:47:37.795Z,1.92
2023-03-05T02:50:05.587Z,1.75
2023-03-05T02:52:32.907Z,1.33
2023-03-05T02:54:59.632Z,1.92
2023-03-05T02:57:26.188Z,1.65
2023-03-05T02:59:53.098Z,1.58
2023-03-05T03:02:19.945Z,1.40
2023-03-05T03:04:46.522Z,1.58
2023-03-05T03:07:14.321Z,2.10
2023-03-05T03:09:42.721Z,1.73
2023-03-05T03:12:09.849Z,2.38
2023-03-05T03:14:39.262Z,2.17
2023-03-05T03:17:11.631Z,1.98
2023-03-05T03:19:39.003Z,2.22
2023-03-05T03:22:07.060Z,1.83
2023-03-05T03:24:34.750Z,2.33
2023-03-05T03:27:02.075Z,1.90
2023-03-05T03:29:28.911Z,1.35
2023-03-05T03:31:55.532Z,2.65
2023-03-05T03:34:22.149Z,1.10
2023-03-05T03:36:49.798Z,1.20
2023-03-05T03:39:17.313Z,1.13
2023-03-05T03:41:49.483Z,1.20
2023-03-05T03:44:17.890Z,1.88
2023-03-05T03:46:46.242Z,1.70
2023-03-05T03:49:28.876Z,2.40
2023-03-05T03:51:55.588Z,0.88
2023-03-05T03:54:22.515Z,1.88
2023-03-05T03:56:49.078Z,2.08
2023-03-05T03:59:15.794Z,1.35
2023-03-05T04:01:42.616Z,1.30
2023-03-05T04:04:12.142Z,1.02
2023-03-05T04:06:39.218Z,1.10
2023-03-05T04:09:08.109Z,1.38
2023-03-05T04:11:36.118Z,1.50
2023-03-05T04:14:03.721Z,1.52
2023-03-05T04:16:30.523Z,1.27
2023-03-05T04:18:57.078Z,1.73
2023-03-05T04:21:23.894Z,1.27
2023-03-05T04:23:50.449Z,1.45
2023-03-05T04:26:17.014Z,0.82
2023-03-05T04:28:43.595Z,1.63
2023-03-05T04:31:10.293Z,1.05
2023-03-05T04:33:36.887Z,2.50
2023-03-05T04:36:03.654Z,2.35
2023-03-05T04:38:30.202Z,1.35
2023-03-05T04:40:56.738Z,1.05
2023-03-05T04:43:23.399Z,0.80
2023-03-05T04:45:49.990Z,1.40
2023-03-05T04:48:16.931Z,1.15
2023-03-05T04:50:43.516Z,1.30
2023-03-05T04:53:10.101Z,1.20
2023-03-05T04:55:36.653Z,1.55
2023-03-05T04:58:03.252Z,1.25
2023-03-05T05:00:30.541Z,1.42
2023-03-05T05:02:57.358Z,1.45
2023-03-05T05:05:25.782Z,0.98
2023-03-05T05:07:56.691Z,1.10
2023-03-05T05:10:24.608Z,0.73
2023-03-05T05:12:51.541Z,1.75
2023-03-05T05:15:18.318Z,0.70
2023-03-05T05:17:45.666Z,1.38
2023-03-05T05:20:14.320Z,2.03
2023-03-05T05:22:41.200Z,0.70
2023-03-05T05:25:08.752Z,1.15
2023-03-05T05:27:35.692Z,0.85
2023-03-05T05:30:02.446Z,1.08
2023-03-05T05:32:29.334Z,0.93
2023-03-05T05:34:57.637Z,0.50
2023-03-05T05:37:25.362Z,1.02
2023-03-05T05:39:52.354Z,0.98
2023-03-05T05:42:24.139Z,0.73
2023-03-05T05:44:50.791Z,1.48
2023-03-05T05:47:19.232Z,0.70
2023-03-05T05:49:46.062Z,0.82
2023-03-05T05:52:13.705Z,0.63
2023-03-05T05:54:40.454Z,0.50
2023-03-05T05:57:07.316Z,1.02
2023-03-05T05:59:33.921Z,0.80
2023-03-05T06:02:00.586Z,1.30
2023-03-05T06:04:27.166Z,1.25
2023-03-05T06:06:53.834Z,1.58
2023-03-05T06:09:20.406Z,0.90
2023-03-05T06:11:46.996Z,1.20
2023-03-05T06:14:14.277Z,0.77
2023-03-05T06:16:41.169Z,0.85
2023-03-05T06:19:11.248Z,0.85
2023-03-05T06:21:38.071Z,1.52
2023-03-05T06:24:05.154Z,3.10
2023-03-05T06:26:32.171Z,0.80
2023-03-05T06:28:59.188Z,1.80
2023-03-05T06:31:27.816Z,2.33
2023-03-05T06:33:56.524Z,1.42
2023-03-05T06:36:24.756Z,1.85
2023-03-05T06:38:53.303Z,1.42
2023-03-05T06:41:22.893Z,1.02
2023-03-05T06:43:49.814Z,1.58
2023-03-05T06:46:28.020Z,0.98
2023-03-05T06:48:59.694Z,1.00
2023-03-05T06:51:32.191Z,0.77
2023-03-05T06:54:11.576Z,1.00
2023-03-05T06:56:40.872Z,1.10
2023-03-05T06:59:08.152Z,1.92
2023-03-05T07:01:35.335Z,1.98
2023-03-05T07:04:03.022Z,2.30
2023-03-05T07:06:32.659Z,2.38
2023-03-05T07:09:01.244Z,2.03
2023-03-05T07:11:28.037Z,4.63
2023-03-05T07:13:54.656Z,3.70
2023-03-05T07:16:25.261Z,3.72
2023-03-05T07:18:52.889Z,1.38
2023-03-05T07:21:22.263Z,3.67
2023-03-05T07:23:50.034Z,1.75
2023-03-05T07:26:17.074Z,1.92
2023-03-05T07:28:43.994Z,1.85
2023-03-05T07:31:19.316Z,1.75
2023-03-05T07:33:47.468Z,4.25
2023-03-05T07:36:14.302Z,1.20
2023-03-05T07:38:41.285Z,2.13
2023-03-05T07:41:11.260Z,1.50
2023-03-05T07:43:38.423Z,1.55
2023-03-05T07:46:11.568Z,2.78
2023-03-05T07:48:38.380Z,2.22
2023-03-05T07:51:08.502Z,3.13
2023-03-05T07:53:35.271Z,5.55
2023-03-05T07:56:02.221Z,1.38
2023-03-05T07:58:28.860Z,2.17
2023-03-05T08:00:55.535Z,2.10
2023-03-05T08:03:22.123Z,2.05
2023-03-05T08:05:48.993Z,1.33
2023-03-05T08:08:16.430Z,2.70
2023-03-05T08:10:42.994Z,3.53
2023-03-05T08:13:09.714Z,4.38
2023-03-05T08:15:37.958Z,1.58
2023-03-05T08:18:05.040Z,3.13
2023-03-05T08:20:34.310Z,1.55
2023-03-05T08:23:01.017Z,2.80
2023-03-05T08:25:28.376Z,2.58
2023-03-05T08:27:54.963Z,3.88
2023-03-05T08:30:22.487Z,2.67
2023-03-05T08:32:49.871Z,1.60
2023-03-05T08:35:16.585Z,1.08
2023-03-05T08:37:43.363Z,1.70
2023-03-05T08:40:11.069Z,2.22
2023-03-05T08:42:37.632Z,1.73
2023-03-05T08:45:04.711Z,1.80
2023-03-05T08:47:31.296Z,2.13
2023-03-05T08:49:58.347Z,1.50
2023-03-05T08:52:27.148Z,2.72
2023-03-05T08:54:53.876Z,2.25
2023-03-05T08:57:20.428Z,3.10
2023-03-05T08:59:47.207Z,1.90
2023-03-05T09:02:14.409Z,1.52
2023-03-05T09:04:41.188Z,2.15
2023-03-05T09:07:07.939Z,1.65
2023-03-05T09:09:35.011Z,2.30
2023-03-05T09:12:02.263Z,2.50
2023-03-05T09:14:29.473Z,1.92
2023-03-05T09:16:57.397Z,3.70
2023-03-05T09:19:24.746Z,2.72
2023-03-05T09:21:51.483Z,1.17
2023-03-05T09:24:18.150Z,1.60
2023-03-05T09:26:44.746Z,1.35
2023-03-05T09:29:12.359Z,1.73
2023-03-05T09:31:39.714Z,2.35
2023-03-05T09:34:08.126Z,2.28
2023-03-05T09:36:34.894Z,0.82
2023-03-05T09:39:01.598Z,1.25
2023-03-05T09:41:55.510Z,0.85
2023-03-05T09:44:46.504Z,1.60
2023-03-05T09:47:20.109Z,1.55
2023-03-05T09:50:01.443Z,2.00
2023-03-05T09:52:44.623Z,1.23
2023-03-05T09:55:27.432Z,1.95
2023-03-05T09:57:58.949Z,2.08
2023-03-05T10:00:37.516Z,1.60
2023-03-05T10:03:15.961Z,1.08
2023-03-05T10:05:53.752Z,2.55
2023-03-05T10:08:25.416Z,0.90
2023-03-05T10:10:53.942Z,0.65
2023-03-05T10:13:27.024Z,1.40
2023-03-05T10:16:27.682Z,1.63
2023-03-05T10:19:14.324Z,0.77
2023-03-05T10:22:08.319Z,1.13
2023-03-05T10:25:30.497Z,1.00
2023-03-05T10:28:05.883Z,1.42
2023-03-05T10:30:45.157Z,1.13
2023-03-05T10:33:17.430Z,1.55
2023-03-05T10:36:11.121Z,0.88
2023-03-05T10:39:26.006Z,1.25
2023-03-05T10:42:17.602Z,0.75
2023-03-05T10:44:52.605Z,2.83
2023-03-05T10:47:44.513Z,3.17
2023-03-05T10:50:41.453Z,0.70
2023-03-05T10:53:18.613Z,1.55
2023-03-05T10:55:45.222Z,1.30
2023-03-05T10:58:17.526Z,1.08
2023-03-05T11:01:10.506Z,2.05
2023-03-05T11:03:53.564Z,0.90
2023-03-05T11:06:37.062Z,2.17
2023-03-05T11:09:32.410Z,0.55
2023-03-05T11:12:25.611Z,2.85
2023-03-05T11:15:26.521Z,1.20
2023-03-05T11:18:16.543Z,0.90
2023-03-05T11:20:43.183Z,0.68
2023-03-05T11:23:12.629Z,0.77
2023-03-05T11:25:56.091Z,0.77
2023-03-05T11:28:33.822Z,1.52
2023-03-05T11:31:15.583Z,1.00
2023-03-05T11:33:56.041Z,1.23
2023-03-05T11:36:37.484Z,0.70
2023-03-05T11:39:09.862Z,1.35
2023-03-05T11:41:47.250Z,1.10
2023-03-05T11:44:19.260Z,1.42
2023-03-05T11:46:57.744Z,0.70
2023-03-05T11:49:27.926Z,1.35
2023-03-05T11:51:54.497Z,0.90
2023-03-05T11:54:27.041Z,1.00
2023-03-05T11:56:54.302Z,0.50
2023-03-05T11:59:27.892Z,0.50
2023-03-05T12:01:56.444Z,1.02
2023-03-05T12:04:24.329Z,1.50
2023-03-05T12:07:00.454Z,1.17
2023-03-05T12:09:45.714Z,0.50
2023-03-05T12:12:35.814Z,1.35
2023-03-05T12:15:17.473Z,0.57
2023-03-05T12:17:48.142Z,0.65
2023-03-05T12:20:20.933Z,1.10
2023-03-05T12:22:47.655Z,0.50
2023-03-05T12:25:26.061Z,0.90
2023-03-05T12:27:52.955Z,0.52
2023-03-05T12:30:34.528Z,0.88
2023-03-05T12:33:03.262Z,0.60
2023-03-05T12:35:38.060Z,1.15
2023-03-05T12:38:29.050Z,0.88
2023-03-05T12:41:25.245Z,1.85
2023-03-05T12:44:05.111Z,0.50
2023-03-05T12:46:35.397Z,0.45
2023-03-05T12:49:20.285Z,1.35
2023-03-05T12:51:54.890Z,0.47
2023-03-05T12:54:27.293Z,0.63
2023-03-05T12:56:56.655Z,0.40
2023-03-05T12:59:29.541Z,0.50
2023-03-05T13:02:03.371Z,0.40
2023-03-05T13:04:33.197Z,0.40
2023-03-05T13:07:07.153Z,0.35
2023-03-05T13:09:36.166Z,0.93
2023-03-05T13:12:09.932Z,0.73
2023-03-05T13:14:47.049Z,0.47
2023-03-05T13:18:08.417Z,0.40
2023-03-05T13:20:42.589Z,0.40
2023-03-05T13:23:18.160Z,0.40
2023-03-05T13:25:46.090Z,0.40
2023-03-05T13:28:16.900Z,0.90
2023-03-05T13:30:50.441Z,0.82
2023-03-05T13:33:22.285Z,0.57
2023-03-05T13:35:49.044Z,1.05
2023-03-05T13:38:25.298Z,0.45
2023-03-05T13:41:05.881Z,0.32
2023-03-05T13:43:32.902Z,0.40
2023-03-05T13:45:59.804Z,0.75
2023-03-05T13:48:27.365Z,0.35
2023-03-05T13:50:56.753Z,0.60
2023-03-05T13:53:34.188Z,0.40
2023-03-05T13:56:04.865Z,0.70
2023-03-05T13:58:44.235Z,1.25
2023-03-05T14:01:41.402Z,0.40
2023-03-05T14:04:21.995Z,0.40
2023-03-05T14:06:58.119Z,0.40
2023-03-05T14:09:27.709Z,0.52
2023-03-05T14:12:21.340Z,0.50
2023-03-05T14:14:48.938Z,0.40
2023-03-05T14:17:43.029Z,0.50
2023-03-05T14:20:28.466Z,0.63
2023-03-05T14:22:58.089Z,0.95
2023-03-05T14:25:36.243Z,0.40
2023-03-05T14:28:06.452Z,0.40
2023-03-05T14:30:35.867Z,0.40
2023-03-05T14:33:03.349Z,0.40
2023-03-05T14:35:30.641Z,0.95
2023-03-05T14:37:59.637Z,0.88
2023-03-05T14:40:35.374Z,0.45
2023-03-05T14:43:11.527Z,0.47
2023-03-05T14:45:40.782Z,0.55
2023-03-05T14:48:10.250Z,1.13
2023-03-05T14:50:47.028Z,0.45
2023-03-05T14:53:20.145Z,1.38
2023-03-05T14:55:50.279Z,0.40
2023-03-05T14:58:21.555Z,5.78
2023-03-05T15:00:51.136Z,3.45
2023-03-05T15:03:19.325Z,4.53
2023-03-05T15:05:49.419Z,2.47
2023-03-05T15:08:25.494Z,3.58
2023-03-05T15:10:52.794Z,6.43
2023-03-05T15:13:20.168Z,2.97
2023-03-05T15:15:49.105Z,2.83
2023-03-05T15:18:18.861Z,4.68
2023-03-05T15:20:46.151Z,3.45
2023-03-05T15:23:12.881Z,5.28
2023-03-05T15:25:40.626Z,5.47
2023-03-05T15:28:07.555Z,3.22
2023-03-05T15:30:37.482Z,2.85
2023-03-05T15:33:09.964Z,4.28
2023-03-05T15:35:37.131Z,2.13
2023-03-05T15:38:04.285Z,2.58
2023-03-05T15:40:31.614Z,4.60
2023-03-05T15:42:59.518Z,2.13
2023-03-05T15:45:27.278Z,4.78
2023-03-05T15:47:54.235Z,3.75
2023-03-05T15:50:21.771Z,7.30
2023-03-05T15:52:49.277Z,5.53
2023-03-05T15:55:18.093Z,3.90
2023-03-05T15:57:47.624Z,6.93
2023-03-05T16:00:16.458Z,5.15
2023-03-05T16:02:43.070Z,3.85
2023-03-05T16:05:10.011Z,5.40
2023-03-05T16:07:41.209Z,4.75
2023-03-05T16:10:13.187Z,6.82
2023-03-05T16:12:43.356Z,3.55
2023-03-05T16:15:16.059Z,3.50
2023-03-05T16:17:45.265Z,6.65
2023-03-05T16:20:12.858Z,4.60
2023-03-05T16:22:39.700Z,6.22
2023-03-05T16:25:06.693Z,7.68
2023-03-05T16:27:33.761Z,5.57
2023-03-05T16:30:00.379Z,4.75
2023-03-05T16:32:27.109Z,5.55
2023-03-05T16:34:53.664Z,4.60
2023-03-05T16:37:22.525Z,4.00
2023-03-05T16:39:49.443Z,3.63
2023-03-05T16:42:16.955Z,4.13
2023-03-05T16:44:44.712Z,4.97
2023-03-05T16:47:12.236Z,4.75
2023-03-05T16:49:39.442Z,6.35
2023-03-05T16:52:18.234Z,4.80
2023-03-05T16:54:46.414Z,8.32
2023-03-05T16:57:13.095Z,3.78
2023-03-05T16:59:40.134Z,3.17
2023-03-05T17:02:06.865Z,5.43
2023-03-05T17:04:33.767Z,4.53
2023-03-05T17:07:00.357Z,4.93
2023-03-05T17:09:26.965Z,2.97
2023-03-05T17:11:54.361Z,3.83
2023-03-05T17:14:21.471Z,2.88
2023-03-05T17:16:48.268Z,5.82
2023-03-05T17:19:14.975Z,3.85
2023-03-05T17:21:42.554Z,2.78
2023-03-05T17:24:10.005Z,4.30
2023-03-05T17:26:37.759Z,4.35
2023-03-05T17:29:05.605Z,6.38
2023-03-05T17:31:32.372Z,3.53
2023-03-05T17:33:59.146Z,4.07
2023-03-05T17:36:26.041Z,3.33
2023-03-05T17:38:53.511Z,6.80
2023-03-05T17:41:20.778Z,5.32
2023-03-05T17:43:47.372Z,5.15
2023-03-05T17:46:14.848Z,6.32
2023-03-05T17:48:42.111Z,6.22
2023-03-05T17:51:12.271Z,6.22
2023-03-05T17:53:40.123Z,4.10
2023-03-05T17:56:12.239Z,6.22
2023-03-05T17:58:39.914Z,6.75
2023-03-05T18:01:06.890Z,7.47
2023-03-05T18:03:33.616Z,8.02
2023-03-05T18:06:00.250Z,7.18
2023-03-05T18:08:26.915Z,6.50
2023-03-05T18:10:54.290Z,5.40
2023-03-05T18:13:20.958Z,8.32
2023-03-05T18:15:47.820Z,6.68
2023-03-05T18:18:15.607Z,6.65
2023-03-05T18:20:42.495Z,5.22
2023-03-05T18:23:10.250Z,5.22
2023-03-05T18:25:36.844Z,6.25
2023-03-05T18:28:06.259Z,5.82
2023-03-05T18:30:33.005Z,4.97
2023-03-05T18:33:00.132Z,8.13
2023-03-05T18:35:28.833Z,6.28
2023-03-05T18:37:56.013Z,5.75
2023-03-05T18:40:25.447Z,3.92
2023-03-05T18:42:52.613Z,3.40
2023-03-05T18:45:21.679Z,4.72
2023-03-05T18:47:53.839Z,5.55
2023-03-05T18:50:21.897Z,4.13
2023-03-05T18:52:48.482Z,5.22
2023-03-05T18:55:27.215Z,4.20
2023-03-05T18:57:54.106Z,2.95
2023-03-05T19:00:23.703Z,3.95
2023-03-05T19:02:50.659Z,3.80
2023-03-05T19:05:18.929Z,3.38
2023-03-05T19:07:46.504Z,8.05
2023-03-05T19:10:15.682Z,3.50
2023-03-05T19:13:39.623Z,3.70
2023-03-05T19:16:17.928Z,3.70
2023-03-05T19:19:19.502Z,3.40
2023-03-05T19:21:48.391Z,3.75
2023-03-05T19:24:16.300Z,3.08
2023-03-05T19:26:43.583Z,2.95
2023-03-05T19:29:10.229Z,2.85
2023-03-05T19:31:37.934Z,3.78
2023-03-05T19:34:04.876Z,3.35
2023-03-05T19:36:32.667Z,5.75
2023-03-05T19:38:59.423Z,3.33
2023-03-05T19:41:27.579Z,3.15
2023-03-05T19:43:54.105Z,3.40
2023-03-05T19:46:20.699Z,3.25
2023-03-05T19:48:47.648Z,3.65
2023-03-05T19:51:17.225Z,4.40
2023-03-05T19:53:44.714Z,2.70
2023-03-05T19:56:12.542Z,2.97
2023-03-05T19:58:40.459Z,4.40
2023-03-05T20:01:09.007Z,2.78
2023-03-05T20:03:35.763Z,2.75
2023-03-05T20:06:02.374Z,2.38
2023-03-05T20:08:28.919Z,3.08
2023-03-05T20:10:55.493Z,2.05
2023-03-05T20:13:23.786Z,2.95
2023-03-05T20:15:50.413Z,1.38
2023-03-05T20:18:17.052Z,2.33
2023-03-05T20:20:43.818Z,2.00
2023-03-05T20:23:10.376Z,2.67
2023-03-05T20:25:40.062Z,2.28
2023-03-05T20:28:06.663Z,2.22
2023-03-05T20:30:33.292Z,3.35
2023-03-05T20:32:59.995Z,2.05
2023-03-05T20:35:26.608Z,2.53
2023-03-05T20:38:21.434Z,2.85
2023-03-05T20:40:53.895Z,3.13
2023-03-05T20:43:21.757Z,3.05
2023-03-05T20:45:49.156Z,1.60
2023-03-05T20:48:15.969Z,3.08
2023-03-05T20:50:42.708Z,2.53
2023-03-05T20:53:09.350Z,2.25
2023-03-05T20:55:35.993Z,2.30
2023-03-05T20:58:02.599Z,2.63
2023-03-05T21:00:29.942Z,2.42
2023-03-05T21:02:57.003Z,1.80
2023-03-05T21:05:30.050Z,1.50
2023-03-05T21:07:58.694Z,1.77
2023-03-05T21:10:26.089Z,1.67
2023-03-05T21:12:53.472Z,2.75
2023-03-05T21:15:28.706Z,3.90
2023-03-05T21:17:56.161Z,1.50
2023-03-05T21:20:29.769Z,1.80
2023-03-05T21:22:57.497Z,1.67
2023-03-05T21:25:27.528Z,1.85
2023-03-05T21:27:58.906Z,2.15
2023-03-05T21:30:34.369Z,1.60
2023-03-05T21:33:02.591Z,1.83
2023-03-05T21:35:29.878Z,2.35
2023-03-05T21:37:56.433Z,1.30
2023-03-05T21:40:23.118Z,1.73
2023-03-05T21:42:49.979Z,1.88
2023-03-05T21:45:20.096Z,1.73
2023-03-05T21:47:47.045Z,2.22
2023-03-05T21:50:15.215Z,1.33
2023-03-05T21:52:42.301Z,3.25
2023-03-05T21:55:13.532Z,0.95
2023-03-05T21:57:40.591Z,2.25
2023-03-05T22:00:10.683Z,1.92
2023-03-05T22:02:37.374Z,2.30
2023-03-05T22:05:06.336Z,1.85
2023-03-05T22:07:33.227Z,2.58
2023-03-05T22:10:00.173Z,2.13
2023-03-05T22:12:48.655Z,1.00
2023-03-05T22:15:15.253Z,1.55
2023-03-05T22:17:41.810Z,1.33
2023-03-05T22:20:09.123Z,1.65
2023-03-05T22:22:36.402Z,1.63
2023-03-05T22:25:04.078Z,1.10
2023-03-05T22:27:30.642Z,1.80
2023-03-05T22:29:57.273Z,1.30
2023-03-05T22:32:23.849Z,2.83
2023-03-05T22:34:54.386Z,1.67
2023-03-05T22:37:20.963Z,2.25
2023-03-05T22:39:47.533Z,2.47
2023-03-05T22:42:14.157Z,1.30
2023-03-05T22:44:40.787Z,2.45
2023-03-05T22:47:07.370Z,1.20
2023-03-05T22:49:33.902Z,2.95
2023-03-05T22:52:00.463Z,2.92
2023-03-05T22:54:27.094Z,1.35
2023-03-05T22:56:53.649Z,1.88
2023-03-05T22:59:20.226Z,1.35
2023-03-05T23:01:46.830Z,1.58
2023-03-05T23:05:05.926Z,0.93
2023-03-05T23:07:35.298Z,1.75
2023-03-05T23:10:06.093Z,1.15
2023-03-05T23:12:35.074Z,1.58
2023-03-05T23:15:05.050Z,1.17
2023-03-05T23:17:31.658Z,1.27
2023-03-05T23:19:58.217Z,1.02
2023-03-05T23:22:24.812Z,2.10
2023-03-05T23:24:51.358Z,0.90
2023-03-05T23:27:20.710Z,1.00
2023-03-05T23:30:21.838Z,1.58
2023-03-05T23:33:04.244Z,1.55
2023-03-05T23:35:32.518Z,1.13
2023-03-05T23:38:00.647Z,1.33
2023-03-05T23:40:36.864Z,1.52
2023-03-05T23:43:04.314Z,0.80
2023-03-05T23:45:31.274Z,0.95
2023-03-05T23:47:58.197Z,1.90
2023-03-05T23:50:30.352Z,1.35
2023-03-05T23:52:57.842Z,0.80
2023-03-05T23:55:34.113Z,1.52
2023-03-05T23:58:01.041Z,0.90
